53分钟前
罗盘
风向 的 风向 200° Edmonton / Cooking Lake Airport 10/28
风: 5 千吨, 2 beaufort
0 500 1.500 3.000 5.000 8.000 10.000
FEW 9.000 ft
BKN 16.000 ft
BKN 25.000 ft
METAR CYEG 291600Z 20005KT 20SM FEW090 BKN160 BKN250 M02/M04 A2988 RMK AC1AC6CI1 CI TR CVCTV CLD EMBD SLP150

METAR定义 | 嵌入

24小时趋势

航班类别VFRLIFR
温度4 °C-5 °C
风速9 千吨0 千吨
能见度32 公里0 米

更多历史数据

下载我们的安卓应用程序

从你的主屏幕上轻松地访问你的航空天气。
只需一次付费,您就可以获得无广告的体验。

您会帮助我们保持Metar-Taf.com正常运行吗?
您的贡献有助于网站的进一步开发并支付费用。

没有更多广告

您是捐款5美元还是更多?然后,我们将永远不会再向您展示广告,这是我们永恒的感谢!
捐赠前先登录

METAR Edmonton / Cooking Lake Airport

Edmonton / Cooking Lake Airport是Edmonton,加拿大中的小机场。 机场有{a,plural,=1{一条跑道} other{#跑道}}: 10/28

Edmonton / Cooking Lake Airport最近未发布观察结果。相反,我们向您显示33 km的报告Edmonton International Airport。 该报告是针对2021年11月29日 09:00, 当地时间进行的。

机场观察

风来自南南西 (200°)方向,速度为5 千吨。

可见度为32 公里。

有几云在9.000 ft的高度, 碎云在16.000 ft的高度 和 碎云在25.000 ft的高度。 破损或更高的上限为16.000 ft。

温度为-2 °C,阵风为-8 °C。 露点为-4 °C,相对湿度为86%。 海平面上的气压为1012 压力 (QNH)。

评论

  • 海平面压力为1015,0 压力 (SLP150)
  • AC1AC6CI1 CI TR CVCTV CLD EMBD

白天

今天,太阳从08:22升起,在16:19降落。 这适用于Edmonton / Cooking Lake Airport,世界夏令时可能有所不同。 当地时间与世界标准时间之间的时差为-7 小时。 当前,没有夏令时有效。

公司介绍

我们没有关于这个机场的公司信息。

体会

到Vliegles.nl去找飞行课程,跳伞和其他飞行体验。 浏览页面,了解Edmonton / Cooking Lake Airport附近所有可用的活动。 你也可以使用搜索功能来寻找你所在地附近的特定飞行课程、跳伞或其他飞行体验。

您是否要在网站上Edmonton / Cooking Lake Airport飞行的天气? 阅读更多   自由!